createdAt,value
2023-02-19T00:01:45.472Z,6.80
2023-02-19T00:04:13.909Z,6.30
2023-02-19T00:06:41.722Z,7.15
2023-02-19T00:09:10.831Z,6.72
2023-02-19T00:11:38.232Z,6.97
2023-02-19T00:14:05.615Z,6.10
2023-02-19T00:16:35.358Z,6.57
2023-02-19T00:19:03.852Z,6.75
2023-02-19T00:21:31.216Z,6.70
2023-02-19T00:24:01.037Z,7.03
2023-02-19T00:26:28.004Z,6.72
2023-02-19T00:28:57.533Z,6.28
2023-02-19T00:31:29.910Z,6.35
2023-02-19T00:33:59.641Z,6.68
2023-02-19T00:36:27.979Z,6.88
2023-02-19T00:38:55.434Z,6.75
2023-02-19T00:41:23.283Z,6.75
2023-02-19T00:43:57.214Z,6.43
2023-02-19T00:46:26.927Z,7.85
2023-02-19T00:48:54.508Z,7.00
2023-02-19T00:51:23.833Z,7.00
2023-02-19T00:53:50.603Z,7.18
2023-02-19T00:56:17.980Z,7.57
2023-02-19T00:58:44.913Z,7.30
2023-02-19T01:01:12.138Z,7.85
2023-02-19T01:03:39.762Z,7.28
2023-02-19T01:06:08.552Z,6.95
2023-02-19T01:08:35.688Z,8.00
2023-02-19T01:11:03.539Z,7.20
2023-02-19T01:13:30.444Z,7.55
2023-02-19T01:16:04.674Z,6.90
2023-02-19T01:18:32.189Z,7.00
2023-02-19T01:20:58.793Z,7.47
2023-02-19T01:23:25.655Z,7.20
2023-02-19T01:25:52.226Z,7.75
2023-02-19T01:28:18.828Z,8.73
2023-02-19T01:30:45.397Z,7.85
2023-02-19T01:33:11.976Z,7.10
2023-02-19T01:35:39.571Z,6.40
2023-02-19T01:38:08.342Z,7.10
2023-02-19T01:40:35.291Z,6.95
2023-02-19T01:43:03.670Z,7.30
2023-02-19T01:45:32.388Z,7.45
2023-02-19T01:48:05.261Z,6.78
2023-02-19T01:50:44.453Z,7.53
2023-02-19T01:53:13.349Z,8.25
2023-02-19T01:55:41.025Z,7.38
2023-02-19T01:58:09.197Z,7.03
2023-02-19T02:00:37.050Z,7.28
2023-02-19T02:03:04.547Z,7.25
2023-02-19T02:05:46.275Z,7.80
2023-02-19T02:08:33.581Z,7.65
2023-02-19T02:11:00.847Z,7.80
2023-02-19T02:13:27.795Z,7.70
2023-02-19T02:16:14.663Z,8.10
2023-02-19T02:19:03.863Z,7.22
2023-02-19T02:21:56.531Z,7.88
2023-02-19T02:24:56.595Z,7.78
2023-02-19T02:27:23.161Z,7.43
2023-02-19T02:30:04.734Z,7.68
2023-02-19T02:32:54.882Z,7.57
2023-02-19T02:35:31.476Z,7.30
2023-02-19T02:38:02.920Z,6.10
2023-02-19T02:40:30.009Z,6.10
2023-02-19T02:43:00.855Z,5.60
2023-02-19T02:45:34.937Z,6.00
2023-02-19T02:48:32.605Z,5.75
2023-02-19T02:51:14.410Z,5.68
2023-02-19T02:54:15.677Z,6.60
2023-02-19T02:56:44.153Z,5.68
2023-02-19T02:59:13.720Z,5.80
2023-02-19T03:02:05.900Z,6.45
2023-02-19T03:05:11.968Z,6.05
2023-02-19T03:07:54.331Z,6.63
2023-02-19T03:10:26.366Z,6.40
2023-02-19T03:13:15.501Z,5.90
2023-02-19T03:16:06.649Z,6.07
2023-02-19T03:19:03.698Z,6.68
2023-02-19T03:21:34.254Z,6.25
2023-02-19T03:24:20.038Z,6.90
2023-02-19T03:26:54.000Z,6.43
2023-02-19T03:29:25.976Z,6.97
2023-02-19T03:32:00.370Z,7.40
2023-02-19T03:34:34.808Z,6.38
2023-02-19T03:37:11.029Z,5.60
2023-02-19T03:39:44.421Z,6.30
2023-02-19T03:42:14.065Z,5.25
2023-02-19T03:45:11.322Z,5.53
2023-02-19T03:47:49.987Z,4.95
2023-02-19T03:50:36.533Z,4.80
2023-02-19T03:53:18.340Z,4.68
2023-02-19T03:56:02.065Z,4.47
2023-02-19T03:58:36.164Z,4.68
2023-02-19T04:01:15.365Z,4.47
2023-02-19T04:04:01.496Z,4.88
2023-02-19T04:06:30.395Z,5.45
2023-02-19T04:09:00.515Z,4.07
2023-02-19T04:11:29.130Z,4.95
2023-02-19T04:14:03.154Z,3.92
2023-02-19T04:16:30.910Z,3.42
2023-02-19T04:19:03.915Z,3.35
2023-02-19T04:21:32.511Z,4.15
2023-02-19T04:24:04.053Z,3.15
2023-02-19T04:26:32.479Z,3.47
2023-02-19T04:28:59.273Z,3.75
2023-02-19T04:31:28.160Z,3.28
2023-02-19T04:33:54.809Z,3.45
2023-02-19T04:36:21.375Z,3.20
2023-02-19T04:38:48.004Z,3.83
2023-02-19T04:41:14.644Z,3.58
2023-02-19T04:43:41.197Z,2.88
2023-02-19T04:46:07.878Z,3.47
2023-02-19T04:48:34.491Z,2.88
2023-02-19T04:51:05.586Z,3.03
2023-02-19T04:53:32.155Z,3.08
2023-02-19T04:56:06.435Z,3.58
2023-02-19T04:58:33.148Z,3.35
2023-02-19T05:00:59.725Z,2.97
2023-02-19T05:03:26.335Z,3.60
2023-02-19T05:05:52.908Z,3.65
2023-02-19T05:08:19.565Z,3.65
2023-02-19T05:10:46.160Z,3.33
2023-02-19T05:13:13.966Z,3.40
2023-02-19T05:15:40.621Z,3.45
2023-02-19T05:18:07.229Z,3.78
2023-02-19T05:20:33.808Z,3.63
2023-02-19T05:23:00.360Z,3.70
2023-02-19T05:25:26.961Z,3.13
2023-02-19T05:28:13.605Z,3.67
2023-02-19T05:30:40.189Z,3.40
2023-02-19T05:33:06.800Z,3.78
2023-02-19T05:35:33.367Z,3.70
2023-02-19T05:37:59.928Z,3.47
2023-02-19T05:40:26.593Z,3.90
2023-02-19T05:42:53.163Z,4.32
2023-02-19T05:45:19.785Z,3.90
2023-02-19T05:47:46.385Z,4.30
2023-02-19T05:50:12.965Z,4.18
2023-02-19T05:52:39.550Z,4.18
2023-02-19T05:55:06.509Z,4.38
2023-02-19T05:57:33.123Z,3.83
2023-02-19T05:59:59.679Z,4.65
2023-02-19T06:02:26.266Z,4.60
2023-02-19T06:04:52.894Z,4.60
2023-02-19T06:07:19.471Z,3.60
2023-02-19T06:09:46.093Z,4.13
2023-02-19T06:12:12.648Z,4.00
2023-02-19T06:14:39.217Z,3.58
2023-02-19T06:17:05.837Z,3.30
2023-02-19T06:19:32.388Z,3.50
2023-02-19T06:21:59.020Z,3.35
2023-02-19T06:24:25.623Z,3.28
2023-02-19T06:26:52.260Z,3.30
2023-02-19T06:29:18.879Z,3.67
2023-02-19T06:31:45.621Z,3.15
2023-02-19T06:34:12.351Z,3.22
2023-02-19T06:36:38.981Z,4.68
2023-02-19T06:39:06.213Z,4.10
2023-02-19T06:41:33.279Z,4.15
2023-02-19T06:43:59.896Z,4.47
2023-02-19T06:46:26.569Z,4.32
2023-02-19T06:48:53.154Z,4.80
2023-02-19T06:51:23.790Z,5.10
2023-02-19T06:53:50.582Z,6.30
2023-02-19T06:56:23.453Z,4.50
2023-02-19T06:58:50.151Z,4.05
2023-02-19T07:01:16.956Z,4.53
2023-02-19T07:03:43.624Z,4.10
2023-02-19T07:06:10.312Z,5.05
2023-02-19T07:08:36.947Z,4.35
2023-02-19T07:11:03.763Z,4.40
2023-02-19T07:13:30.528Z,4.22
2023-02-19T07:16:03.321Z,3.40
2023-02-19T07:18:31.204Z,3.58
2023-02-19T07:21:09.292Z,3.45
2023-02-19T07:23:36.473Z,3.83
2023-02-19T07:26:03.561Z,3.30
2023-02-19T07:28:30.157Z,3.67
2023-02-19T07:31:04.425Z,3.30
2023-02-19T07:33:31.209Z,4.57
2023-02-19T07:35:57.822Z,3.95
2023-02-19T07:38:25.413Z,4.00
2023-02-19T07:40:52.358Z,5.38
2023-02-19T07:43:19.379Z,3.40
2023-02-19T07:45:46.199Z,3.80
2023-02-19T07:48:13.543Z,3.53
2023-02-19T07:50:40.174Z,3.72
2023-02-19T07:53:06.738Z,3.70
2023-02-19T07:55:33.750Z,3.83
2023-02-19T07:58:00.899Z,3.55
2023-02-19T08:00:27.913Z,3.67
2023-02-19T08:03:00.577Z,3.03
2023-02-19T08:05:36.972Z,3.22
2023-02-19T08:08:06.425Z,3.05
2023-02-19T08:10:51.934Z,2.92
2023-02-19T08:13:25.464Z,3.15
2023-02-19T08:15:52.135Z,3.20
2023-02-19T08:18:21.867Z,3.00
2023-02-19T08:20:48.805Z,3.28
2023-02-19T08:23:15.490Z,3.72
2023-02-19T08:25:43.024Z,3.17
2023-02-19T08:28:11.220Z,3.13
2023-02-19T08:30:39.634Z,3.40
2023-02-19T08:33:08.119Z,3.03
2023-02-19T08:35:36.651Z,3.10
2023-02-19T08:38:06.125Z,3.30
2023-02-19T08:40:34.053Z,3.38
2023-02-19T08:43:04.605Z,2.45
2023-02-19T08:45:31.490Z,5.15
2023-02-19T08:47:58.503Z,3.15
2023-02-19T08:50:25.707Z,3.00
2023-02-19T08:52:52.624Z,3.65
2023-02-19T08:55:19.702Z,3.38
2023-02-19T08:57:46.523Z,4.03
2023-02-19T09:00:13.964Z,2.50
2023-02-19T09:02:40.541Z,2.63
2023-02-19T09:05:07.323Z,2.47
2023-02-19T09:07:33.912Z,2.70
2023-02-19T09:10:00.938Z,3.00
2023-02-19T09:12:27.663Z,2.33
2023-02-19T09:14:55.438Z,2.15
2023-02-19T09:17:22.058Z,2.15
2023-02-19T09:19:50.821Z,2.50
2023-02-19T09:22:17.579Z,2.00
2023-02-19T09:24:44.660Z,2.00
2023-02-19T09:27:19.708Z,2.03
2023-02-19T09:29:47.027Z,2.15
2023-02-19T09:32:14.282Z,2.65
2023-02-19T09:34:41.291Z,2.00
2023-02-19T09:37:08.481Z,2.13
2023-02-19T09:39:35.712Z,2.20
2023-02-19T09:42:15.407Z,1.90
2023-02-19T09:44:44.781Z,2.03
2023-02-19T09:47:23.623Z,2.03
2023-02-19T09:49:55.760Z,1.92
2023-02-19T09:52:35.477Z,2.22
2023-02-19T09:55:24.170Z,1.70
2023-02-19T09:57:51.965Z,2.20
2023-02-19T10:00:27.348Z,2.10
2023-02-19T10:03:13.327Z,1.95
2023-02-19T10:05:40.314Z,1.80
2023-02-19T10:08:15.674Z,2.03
2023-02-19T10:10:44.444Z,1.77
2023-02-19T10:13:21.954Z,1.90
2023-02-19T10:16:01.704Z,2.35
2023-02-19T10:18:38.647Z,1.67
2023-02-19T10:21:05.919Z,1.98
2023-02-19T10:23:32.769Z,2.20
2023-02-19T10:26:00.819Z,2.03
2023-02-19T10:28:31.348Z,1.88
2023-02-19T10:31:00.298Z,1.67
2023-02-19T10:33:27.510Z,2.05
2023-02-19T10:36:06.314Z,2.00
2023-02-19T10:38:37.007Z,1.30
2023-02-19T10:41:14.209Z,1.60
2023-02-19T10:43:45.729Z,1.33
2023-02-19T10:46:34.758Z,1.60
2023-02-19T10:49:05.415Z,3.25
2023-02-19T10:51:40.657Z,5.53
2023-02-19T10:54:16.392Z,1.95
2023-02-19T10:56:43.140Z,1.77
2023-02-19T10:59:24.641Z,1.63
2023-02-19T11:02:02.543Z,1.48
2023-02-19T11:04:34.177Z,1.60
2023-02-19T11:07:18.743Z,1.30
2023-02-19T11:09:49.691Z,2.20
2023-02-19T11:12:33.501Z,1.77
2023-02-19T11:15:21.151Z,1.25
2023-02-19T11:18:05.778Z,1.45
2023-02-19T11:20:32.883Z,1.10
2023-02-19T11:23:15.174Z,1.63
2023-02-19T11:25:47.446Z,1.55
2023-02-19T11:30:45.213Z,1.35
2023-02-19T11:33:19.785Z,0.90
2023-02-19T11:35:48.274Z,1.13
2023-02-19T11:38:17.793Z,1.13
2023-02-19T11:41:11.297Z,1.30
2023-02-19T11:43:53.632Z,1.30
2023-02-19T11:46:31.598Z,1.10
2023-02-19T11:49:27.543Z,1.50
2023-02-19T11:51:56.838Z,1.67
2023-02-19T11:54:59.754Z,1.73
2023-02-19T12:00:21.940Z,1.27
2023-02-19T12:03:00.285Z,1.23
2023-02-19T12:05:36.280Z,1.27
2023-02-19T12:08:10.856Z,1.13
2023-02-19T12:10:52.542Z,1.23
2023-02-19T12:13:37.054Z,0.93
2023-02-19T12:16:15.821Z,1.25
2023-02-19T12:19:22.716Z,1.30
2023-02-19T12:22:08.097Z,1.33
2023-02-19T12:25:05.837Z,1.15
2023-02-19T12:28:17.186Z,1.33
2023-02-19T12:31:03.837Z,1.15
2023-02-19T12:33:39.817Z,1.42
2023-02-19T12:36:27.269Z,1.30
2023-02-19T12:39:15.732Z,2.03
2023-02-19T12:42:02.622Z,1.88
2023-02-19T12:44:45.116Z,1.45
2023-02-19T12:49:58.607Z,1.30
2023-02-19T12:52:36.696Z,1.35
2023-02-19T12:55:25.958Z,2.05
2023-02-19T12:57:54.811Z,1.10
2023-02-19T13:00:35.643Z,1.10
2023-02-19T13:03:21.124Z,1.70
2023-02-19T13:06:04.788Z,1.52
2023-02-19T13:09:06.858Z,1.80
2023-02-19T13:11:46.994Z,1.83
2023-02-19T13:14:36.501Z,1.20
2023-02-19T13:17:18.434Z,1.33
2023-02-19T13:19:48.872Z,1.02
2023-02-19T13:22:45.238Z,1.00
2023-02-19T13:25:14.515Z,1.10
2023-02-19T13:28:20.901Z,1.50
2023-02-19T13:31:03.333Z,1.13
2023-02-19T13:36:11.380Z,1.52
2023-02-19T13:38:49.418Z,1.42
2023-02-19T13:41:32.432Z,1.83
2023-02-19T13:44:05.846Z,1.13
2023-02-19T13:46:40.656Z,1.45
2023-02-19T13:49:40.978Z,1.88
2023-02-19T13:52:28.613Z,1.13
2023-02-19T13:55:32.672Z,1.20
2023-02-19T13:58:33.489Z,1.13
2023-02-19T14:01:04.532Z,1.10
2023-02-19T14:03:46.503Z,1.10
2023-02-19T14:06:14.137Z,1.77
2023-02-19T14:08:58.469Z,1.27
2023-02-19T14:11:44.129Z,1.42
2023-02-19T14:14:24.747Z,1.10
2023-02-19T14:17:01.245Z,1.38
2023-02-19T14:19:43.004Z,1.00
2023-02-19T14:22:56.931Z,1.05
2023-02-19T14:25:29.483Z,1.05
2023-02-19T14:28:05.295Z,1.88
2023-02-19T14:30:34.810Z,1.13
2023-02-19T14:33:10.751Z,1.65
2023-02-19T14:35:42.705Z,1.85
2023-02-19T14:38:21.662Z,0.90
2023-02-19T14:40:50.624Z,1.80
2023-02-19T14:43:20.771Z,1.50
2023-02-19T14:45:56.119Z,1.50
2023-02-19T14:48:27.882Z,1.38
2023-02-19T14:51:00.487Z,1.50
2023-02-19T14:53:29.589Z,1.58
2023-02-19T14:55:58.363Z,1.58
2023-02-19T14:58:31.692Z,1.65
2023-02-19T15:00:58.450Z,1.27
2023-02-19T15:03:31.158Z,1.17
2023-02-19T15:06:19.637Z,0.90
2023-02-19T15:08:53.485Z,1.40
2023-02-19T15:11:24.972Z,1.60
2023-02-19T15:13:55.910Z,1.30
2023-02-19T15:16:25.846Z,1.38
2023-02-19T15:18:54.500Z,1.17
2023-02-19T15:21:30.619Z,1.80
2023-02-19T15:24:00.814Z,1.15
2023-02-19T15:26:43.014Z,1.50
2023-02-19T15:29:21.211Z,0.77
2023-02-19T15:31:56.177Z,1.10
2023-02-19T15:34:28.324Z,1.40
2023-02-19T15:36:59.265Z,1.13
2023-02-19T15:39:34.815Z,1.30
2023-02-19T15:42:03.848Z,1.30
2023-02-19T15:44:56.486Z,1.25
2023-02-19T15:47:33.377Z,1.02
2023-02-19T15:50:15.240Z,1.08
2023-02-19T15:52:55.284Z,1.10
2023-02-19T15:55:36.204Z,1.15
2023-02-19T15:58:30.259Z,1.10
2023-02-19T16:01:08.266Z,1.20
2023-02-19T16:03:35.910Z,1.02
2023-02-19T16:06:14.980Z,1.25
2023-02-19T16:08:47.076Z,1.33
2023-02-19T16:11:47.729Z,1.00
2023-02-19T16:14:33.612Z,1.48
2023-02-19T16:17:11.839Z,1.45
2023-02-19T16:19:50.950Z,1.30
2023-02-19T16:22:24.449Z,1.40
2023-02-19T16:25:05.520Z,1.38
2023-02-19T16:27:41.342Z,1.52
2023-02-19T16:30:30.904Z,1.70
2023-02-19T16:33:34.720Z,1.45
2023-02-19T16:36:37.985Z,1.35
2023-02-19T16:39:07.893Z,2.10
2023-02-19T16:41:56.432Z,5.05
2023-02-19T16:44:27.460Z,7.68
2023-02-19T16:47:14.072Z,7.70
2023-02-19T16:49:42.517Z,6.93
2023-02-19T16:52:14.352Z,6.22
2023-02-19T16:54:41.041Z,6.32
2023-02-19T16:57:07.631Z,5.40
2023-02-19T16:59:34.355Z,5.20
2023-02-19T17:02:04.351Z,4.88
2023-02-19T17:04:30.991Z,4.90
2023-02-19T17:06:58.198Z,3.53
2023-02-19T17:09:24.857Z,3.47
2023-02-19T17:11:51.460Z,3.63
2023-02-19T17:14:18.095Z,3.00
2023-02-19T17:16:44.726Z,3.55
2023-02-19T17:19:19.901Z,3.00
2023-02-19T17:21:47.170Z,2.80
2023-02-19T17:24:14.403Z,2.83
2023-02-19T17:26:41.442Z,3.22
2023-02-19T17:29:14.055Z,3.40
2023-02-19T17:31:40.902Z,2.83
2023-02-19T17:34:07.606Z,2.70
2023-02-19T17:36:34.500Z,3.00
2023-02-19T17:39:03.081Z,3.22
2023-02-19T17:41:29.912Z,3.40
2023-02-19T17:43:56.568Z,3.22
2023-02-19T17:46:27.685Z,3.42
2023-02-19T17:48:55.067Z,3.25
2023-02-19T17:51:22.620Z,2.75
2023-02-19T17:53:49.533Z,3.22
2023-02-19T17:56:19.705Z,3.30
2023-02-19T17:58:46.491Z,3.45
2023-02-19T18:01:14.337Z,5.60
2023-02-19T18:03:41.175Z,6.22
2023-02-19T18:06:08.501Z,6.07
2023-02-19T18:08:35.153Z,5.35
2023-02-19T18:11:01.729Z,3.83
2023-02-19T18:13:28.273Z,3.85
2023-02-19T18:15:54.895Z,3.80
2023-02-19T18:18:23.311Z,4.55
2023-02-19T18:20:50.289Z,4.82
2023-02-19T18:23:17.331Z,5.28
2023-02-19T18:25:43.955Z,4.90
2023-02-19T18:28:10.909Z,5.72
2023-02-19T18:30:37.640Z,5.72
2023-02-19T18:33:04.252Z,5.45
2023-02-19T18:35:30.924Z,6.70
2023-02-19T18:37:57.618Z,7.25
2023-02-19T18:40:28.462Z,6.80
2023-02-19T18:42:56.113Z,6.53
2023-02-19T18:45:22.733Z,7.00
2023-02-19T18:47:50.101Z,7.30
2023-02-19T18:50:17.910Z,6.85
2023-02-19T18:52:44.733Z,6.97
2023-02-19T18:55:13.263Z,6.25
2023-02-19T18:57:39.861Z,6.80
2023-02-19T19:00:07.679Z,6.93
2023-02-19T19:02:48.350Z,6.88
2023-02-19T19:05:23.451Z,6.57
2023-02-19T19:07:55.268Z,6.38
2023-02-19T19:10:22.767Z,6.53
2023-02-19T19:12:49.482Z,6.55
2023-02-19T19:15:18.467Z,7.95
2023-02-19T19:17:45.928Z,7.57
2023-02-19T19:20:12.798Z,8.00
2023-02-19T19:22:39.640Z,7.22
2023-02-19T19:25:06.647Z,6.90
2023-02-19T19:27:33.237Z,8.27
2023-02-19T19:29:59.865Z,6.88
2023-02-19T19:32:26.519Z,7.15
2023-02-19T19:34:53.086Z,6.50
2023-02-19T19:37:19.687Z,7.47
2023-02-19T19:39:46.353Z,7.32
2023-02-19T19:42:12.943Z,7.03
2023-02-19T19:44:39.710Z,7.95
2023-02-19T19:47:06.300Z,7.07
2023-02-19T19:49:33.428Z,7.95
2023-02-19T19:52:01.208Z,8.07
2023-02-19T19:54:28.735Z,7.47
2023-02-19T19:56:55.548Z,7.43
2023-02-19T19:59:23.126Z,9.07
2023-02-19T20:01:55.161Z,8.65
2023-02-19T20:04:23.688Z,8.15
2023-02-19T20:06:50.573Z,8.10
2023-02-19T20:09:18.107Z,8.70
2023-02-19T20:11:48.649Z,8.30
2023-02-19T20:14:16.585Z,8.73
2023-02-19T20:16:44.839Z,8.98
2023-02-19T20:19:12.869Z,9.02
2023-02-19T20:21:39.464Z,9.57
2023-02-19T20:24:06.397Z,8.70
2023-02-19T20:26:33.022Z,9.05
2023-02-19T20:28:59.610Z,9.00
2023-02-19T20:31:26.533Z,10.27
2023-02-19T20:33:53.266Z,10.65
2023-02-19T20:36:20.205Z,12.77
2023-02-19T20:38:49.371Z,11.90
2023-02-19T20:41:16.045Z,10.55
2023-02-19T20:43:42.638Z,10.35
2023-02-19T20:46:09.511Z,9.80
2023-02-19T20:48:36.200Z,9.63
2023-02-19T20:51:03.362Z,9.02
2023-02-19T20:53:30.743Z,8.77
2023-02-19T20:55:57.893Z,9.48
2023-02-19T20:58:25.366Z,8.43
2023-02-19T21:00:54.157Z,8.73
2023-02-19T21:03:21.467Z,8.82
2023-02-19T21:05:48.163Z,8.80
2023-02-19T21:08:17.270Z,7.93
2023-02-19T21:10:45.855Z,7.80
2023-02-19T21:13:13.056Z,7.68
2023-02-19T21:15:39.871Z,7.22
2023-02-19T21:18:06.761Z,6.72
2023-02-19T21:20:33.563Z,6.88
2023-02-19T21:23:00.796Z,6.30
2023-02-19T21:25:27.715Z,7.05
2023-02-19T21:27:54.413Z,5.30
2023-02-19T21:30:21.103Z,5.80
2023-02-19T21:32:47.716Z,5.57
2023-02-19T21:35:14.390Z,5.32
2023-02-19T21:37:44.450Z,5.25
2023-02-19T21:40:12.555Z,5.40
2023-02-19T21:42:39.325Z,5.75
2023-02-19T21:45:06.430Z,5.97
2023-02-19T21:47:33.012Z,5.57
2023-02-19T21:49:59.576Z,5.45
2023-02-19T21:52:27.027Z,6.38
2023-02-19T21:54:53.648Z,5.45
2023-02-19T21:57:20.227Z,4.97
2023-02-19T21:59:46.979Z,5.95
2023-02-19T22:02:13.674Z,5.32
2023-02-19T22:04:41.122Z,5.03
2023-02-19T22:07:07.738Z,5.03
2023-02-19T22:09:34.308Z,5.45
2023-02-19T22:12:00.864Z,5.60
2023-02-19T22:14:27.505Z,5.43
2023-02-19T22:16:54.104Z,5.55
2023-02-19T22:19:20.801Z,5.88
2023-02-19T22:21:47.558Z,5.47
2023-02-19T22:24:19.483Z,5.05
2023-02-19T22:26:46.602Z,4.97
2023-02-19T22:29:15.118Z,4.53
2023-02-19T22:31:41.838Z,4.30
2023-02-19T22:34:09.153Z,4.03
2023-02-19T22:36:39.076Z,3.40
2023-02-19T22:39:07.657Z,3.65
2023-02-19T22:41:35.046Z,3.92
2023-02-19T22:44:01.974Z,4.25
2023-02-19T22:46:30.533Z,3.92
2023-02-19T22:48:58.341Z,3.85
2023-02-19T22:51:25.451Z,4.30
2023-02-19T22:53:54.470Z,3.90
2023-02-19T22:56:23.421Z,3.83
2023-02-19T22:58:50.735Z,4.35
2023-02-19T23:01:17.458Z,3.97
2023-02-19T23:03:54.618Z,3.67
2023-02-19T23:06:27.024Z,3.90
2023-02-19T23:11:27.110Z,3.50
2023-02-19T23:16:20.785Z,3.42
2023-02-19T23:18:47.456Z,3.78
2023-02-19T23:21:14.402Z,3.67
2023-02-19T23:23:42.600Z,3.35
2023-02-19T23:26:09.971Z,3.97
2023-02-19T23:28:36.874Z,4.20
2023-02-19T23:31:03.634Z,4.97
2023-02-19T23:33:30.240Z,4.13
2023-02-19T23:35:56.827Z,3.88
2023-02-19T23:38:23.499Z,4.10
2023-02-19T23:40:50.115Z,4.07
2023-02-19T23:43:16.715Z,4.43
2023-02-19T23:45:43.436Z,4.78
2023-02-19T23:48:10.457Z,5.13
2023-02-19T23:50:37.002Z,4.07
2023-02-19T23:53:03.999Z,4.50
2023-02-19T23:55:30.547Z,5.90
2023-02-19T23:57:57.198Z,4.38
